createdAt,value
2023-10-19T00:00:51.511Z,6.47
2023-10-19T00:03:19.662Z,6.00
2023-10-19T00:05:47.978Z,5.88
2023-10-19T00:08:24.448Z,5.80
2023-10-19T00:11:11.507Z,5.90
2023-10-19T00:13:40.655Z,6.95
2023-10-19T00:16:18.088Z,6.10
2023-10-19T00:18:46.067Z,6.05
2023-10-19T00:21:24.221Z,6.35
2023-10-19T00:23:57.360Z,6.03
2023-10-19T00:26:30.367Z,6.07
2023-10-19T00:28:57.524Z,6.65
2023-10-19T00:31:35.359Z,6.90
2023-10-19T00:34:02.314Z,6.70
2023-10-19T00:36:32.066Z,7.10
2023-10-19T00:39:01.021Z,6.75
2023-10-19T00:41:30.893Z,6.80
2023-10-19T00:44:01.452Z,7.75
2023-10-19T00:46:33.787Z,7.32
2023-10-19T00:49:02.674Z,7.03
2023-10-19T00:51:34.203Z,7.82
2023-10-19T00:54:09.353Z,7.18
2023-10-19T00:56:36.969Z,7.60
2023-10-19T00:59:15.958Z,8.07
2023-10-19T01:01:46.570Z,7.78
2023-10-19T01:04:15.790Z,7.72
2023-10-19T01:06:59.302Z,8.35
2023-10-19T01:09:28.487Z,8.40
2023-10-19T01:11:55.277Z,8.75
2023-10-19T01:14:23.525Z,8.30
2023-10-19T01:16:51.081Z,8.27
2023-10-19T01:19:21.827Z,8.32
2023-10-19T01:21:52.347Z,7.88
2023-10-19T01:24:34.994Z,8.02
2023-10-19T01:27:01.768Z,8.57
2023-10-19T01:29:28.370Z,7.65
2023-10-19T01:32:06.104Z,8.60
2023-10-19T01:34:34.510Z,8.38
2023-10-19T01:37:04.841Z,7.60
2023-10-19T01:39:38.001Z,8.15
2023-10-19T01:42:09.624Z,8.52
2023-10-19T01:44:37.237Z,8.20
2023-10-19T01:47:07.103Z,8.57
2023-10-19T01:49:34.104Z,8.50
2023-10-19T01:52:01.840Z,8.57
2023-10-19T01:54:28.645Z,7.82
2023-10-19T01:56:57.683Z,8.45
2023-10-19T01:59:28.615Z,7.80
2023-10-19T02:01:56.450Z,7.75
2023-10-19T02:04:23.351Z,7.22
2023-10-19T02:06:51.676Z,7.47
2023-10-19T02:09:19.173Z,7.63
2023-10-19T02:11:48.088Z,7.15
2023-10-19T02:14:16.380Z,7.80
2023-10-19T02:16:48.843Z,6.88
2023-10-19T02:19:15.822Z,7.00
2023-10-19T02:21:42.867Z,7.43
2023-10-19T02:24:13.599Z,6.97
2023-10-19T02:26:41.459Z,6.85
2023-10-19T02:29:08.679Z,6.38
2023-10-19T02:31:40.907Z,5.90
2023-10-19T02:34:10.982Z,6.47
2023-10-19T02:36:39.290Z,6.53
2023-10-19T02:39:10.822Z,6.28
2023-10-19T02:41:39.138Z,6.55
2023-10-19T02:44:09.878Z,6.03
2023-10-19T02:46:39.876Z,5.82
2023-10-19T02:49:12.740Z,6.30
2023-10-19T02:51:40.640Z,5.85
2023-10-19T02:54:17.156Z,6.25
2023-10-19T02:56:44.228Z,6.35
2023-10-19T02:59:11.907Z,5.68
2023-10-19T03:01:40.049Z,6.20
2023-10-19T03:04:06.749Z,5.85
2023-10-19T03:06:37.159Z,6.13
2023-10-19T03:09:23.315Z,5.65
2023-10-19T03:11:55.644Z,5.75
2023-10-19T03:14:26.092Z,5.63
2023-10-19T03:19:23.144Z,5.28
2023-10-19T03:21:50.382Z,5.25
2023-10-19T03:24:24.672Z,4.53
2023-10-19T03:26:51.894Z,4.90
2023-10-19T03:29:32.242Z,4.95
2023-10-19T03:32:02.752Z,5.00
2023-10-19T03:34:33.425Z,5.10
2023-10-19T03:37:06.368Z,4.85
2023-10-19T03:39:38.917Z,5.07
2023-10-19T03:42:14.882Z,4.43
2023-10-19T03:44:50.868Z,4.43
2023-10-19T03:47:36.862Z,4.18
2023-10-19T03:50:07.977Z,3.50
2023-10-19T03:52:41.472Z,3.88
2023-10-19T03:55:24.134Z,3.67
2023-10-19T03:57:55.984Z,3.63
2023-10-19T04:00:26.656Z,3.55
2023-10-19T04:02:59.578Z,2.90
2023-10-19T04:05:29.671Z,2.60
2023-10-19T04:07:58.100Z,2.60
2023-10-19T04:10:33.325Z,2.30
2023-10-19T04:13:03.687Z,2.30
2023-10-19T04:15:31.604Z,2.03
2023-10-19T04:18:01.477Z,1.80
2023-10-19T04:20:43.764Z,1.60
2023-10-19T04:23:16.959Z,1.20
2023-10-19T04:25:47.098Z,1.27
2023-10-19T04:28:18.390Z,1.45
2023-10-19T04:30:45.029Z,1.80
2023-10-19T04:33:11.810Z,1.40
2023-10-19T04:35:39.021Z,1.30
2023-10-19T04:38:07.501Z,1.20
2023-10-19T04:40:35.008Z,0.85
2023-10-19T04:43:06.742Z,1.17
2023-10-19T04:45:33.604Z,1.20
2023-10-19T04:48:00.385Z,1.42
2023-10-19T04:50:27.087Z,1.20
2023-10-19T04:52:53.841Z,0.82
2023-10-19T04:55:20.688Z,0.85
2023-10-19T04:57:47.544Z,1.08
2023-10-19T05:00:15.769Z,0.85
2023-10-19T05:02:43.433Z,0.80
2023-10-19T05:05:10.881Z,0.80
2023-10-19T05:07:37.770Z,0.70
2023-10-19T05:10:06.535Z,0.85
2023-10-19T05:12:33.409Z,0.73
2023-10-19T05:15:00.190Z,0.90
2023-10-19T05:17:28.239Z,0.75
2023-10-19T05:19:55.057Z,0.80
2023-10-19T05:22:22.839Z,0.70
2023-10-19T05:24:49.582Z,0.80
2023-10-19T05:27:17.450Z,1.00
2023-10-19T05:29:44.545Z,0.90
2023-10-19T05:32:11.349Z,0.98
2023-10-19T05:34:38.253Z,0.90
2023-10-19T05:37:06.577Z,1.10
2023-10-19T05:39:34.842Z,0.90
2023-10-19T05:42:01.980Z,1.05
2023-10-19T05:44:31.623Z,1.10
2023-10-19T05:46:59.623Z,0.88
2023-10-19T05:49:26.841Z,1.00
2023-10-19T05:51:53.728Z,1.02
2023-10-19T05:54:20.534Z,0.98
2023-10-19T05:56:47.360Z,0.88
2023-10-19T05:59:14.519Z,1.15
2023-10-19T06:01:47.756Z,0.93
2023-10-19T06:04:14.575Z,0.70
2023-10-19T06:06:41.499Z,0.90
2023-10-19T06:09:11.240Z,1.20
2023-10-19T06:11:43.905Z,1.05
2023-10-19T06:14:10.943Z,0.90
2023-10-19T06:16:37.852Z,0.98
2023-10-19T06:19:05.218Z,1.00
2023-10-19T06:21:33.829Z,0.80
2023-10-19T06:24:00.549Z,0.90
2023-10-19T06:26:27.270Z,1.10
2023-10-19T06:28:58.428Z,1.23
2023-10-19T06:31:25.791Z,1.45
2023-10-19T06:33:53.108Z,1.20
2023-10-19T06:36:20.286Z,1.20
2023-10-19T06:38:47.368Z,1.10
2023-10-19T06:41:15.307Z,1.02
2023-10-19T06:43:42.302Z,1.23
2023-10-19T06:46:12.504Z,1.23
2023-10-19T06:48:40.598Z,1.20
2023-10-19T06:51:07.878Z,1.40
2023-10-19T06:53:34.837Z,1.40
2023-10-19T06:56:02.427Z,1.48
2023-10-19T06:58:29.346Z,1.50
2023-10-19T07:01:01.561Z,1.30
2023-10-19T07:03:29.424Z,1.40
2023-10-19T07:05:57.722Z,1.30
2023-10-19T07:08:24.537Z,1.50
2023-10-19T07:10:51.292Z,1.60
2023-10-19T07:13:18.372Z,1.55
2023-10-19T07:15:50.379Z,1.30
2023-10-19T07:18:17.829Z,1.35
2023-10-19T07:20:49.511Z,1.25
2023-10-19T07:23:27.552Z,1.50
2023-10-19T07:26:00.973Z,1.42
2023-10-19T07:28:28.478Z,1.38
2023-10-19T07:30:55.379Z,1.10
2023-10-19T07:33:22.172Z,1.40
2023-10-19T07:35:55.663Z,1.38
2023-10-19T07:38:24.519Z,1.65
2023-10-19T07:40:54.296Z,1.95
2023-10-19T07:43:21.700Z,1.73
2023-10-19T07:45:49.520Z,1.60
2023-10-19T07:48:16.247Z,1.58
2023-10-19T07:50:43.630Z,1.50
2023-10-19T07:53:11.070Z,1.20
2023-10-19T07:55:39.901Z,1.45
2023-10-19T07:58:10.102Z,1.40
2023-10-19T08:00:37.256Z,1.42
2023-10-19T08:03:05.391Z,1.58
2023-10-19T08:05:33.243Z,1.23
2023-10-19T08:08:01.513Z,1.63
2023-10-19T08:10:28.663Z,1.67
2023-10-19T08:12:56.497Z,2.40
2023-10-19T08:15:23.544Z,1.70
2023-10-19T08:17:52.136Z,1.60
2023-10-19T08:20:25.610Z,1.80
2023-10-19T08:22:54.368Z,1.13
2023-10-19T08:25:22.143Z,1.92
2023-10-19T08:27:51.783Z,1.55
2023-10-19T08:30:23.905Z,1.38
2023-10-19T08:32:53.484Z,1.52
2023-10-19T08:35:25.668Z,1.60
2023-10-19T08:37:54.153Z,1.50
2023-10-19T08:40:22.637Z,1.40
2023-10-19T08:42:49.725Z,1.40
2023-10-19T08:45:19.617Z,1.58
2023-10-19T08:47:59.341Z,1.40
2023-10-19T08:50:34.627Z,1.73
2023-10-19T08:53:06.207Z,1.55
2023-10-19T08:55:48.314Z,1.63
2023-10-19T08:58:19.005Z,1.48
2023-10-19T09:00:56.470Z,1.90
2023-10-19T09:03:25.655Z,2.03
2023-10-19T09:05:52.804Z,2.40
2023-10-19T09:08:23.131Z,2.00
2023-10-19T09:10:53.158Z,2.05
2023-10-19T09:13:20.890Z,2.00
2023-10-19T09:15:50.576Z,2.20
2023-10-19T09:18:25.565Z,1.98
2023-10-19T09:20:54.796Z,1.73
2023-10-19T09:23:23.107Z,2.58
2023-10-19T09:25:54.133Z,2.35
2023-10-19T09:28:22.925Z,2.33
2023-10-19T09:30:50.059Z,2.30
2023-10-19T09:33:18.699Z,2.22
2023-10-19T09:35:49.338Z,2.38
2023-10-19T09:38:17.202Z,2.10
2023-10-19T09:40:44.241Z,1.90
2023-10-19T09:43:17.696Z,2.13
2023-10-19T09:45:51.072Z,2.72
2023-10-19T09:48:19.084Z,2.27
2023-10-19T09:50:55.951Z,2.35
2023-10-19T09:53:30.557Z,2.53
2023-10-19T09:56:01.258Z,2.38
2023-10-19T09:58:40.315Z,2.10
2023-10-19T10:01:13.285Z,2.15
2023-10-19T10:03:44.126Z,2.15
2023-10-19T10:06:13.208Z,2.10
2023-10-19T10:08:42.150Z,2.30
2023-10-19T10:11:20.337Z,2.10
2023-10-19T10:13:51.950Z,1.92
2023-10-19T10:16:20.474Z,2.13
2023-10-19T10:18:49.565Z,2.40
2023-10-19T10:21:17.921Z,2.20
2023-10-19T10:23:48.893Z,2.13
2023-10-19T10:26:17.813Z,2.58
2023-10-19T10:28:51.998Z,2.33
2023-10-19T10:31:22.407Z,2.40
2023-10-19T10:33:55.774Z,2.15
2023-10-19T10:36:22.865Z,2.47
2023-10-19T10:38:52.727Z,2.25
2023-10-19T10:41:29.834Z,2.33
2023-10-19T10:43:58.420Z,2.28
2023-10-19T10:46:26.770Z,2.20
2023-10-19T10:48:54.067Z,2.28
2023-10-19T10:51:22.929Z,2.50
2023-10-19T10:53:50.955Z,2.60
2023-10-19T10:56:18.732Z,2.28
2023-10-19T10:58:46.207Z,2.30
2023-10-19T11:01:14.211Z,2.35
2023-10-19T11:03:44.165Z,2.05
2023-10-19T11:06:12.202Z,2.35
2023-10-19T11:08:39.611Z,2.35
2023-10-19T11:11:14.060Z,2.50
2023-10-19T11:13:41.531Z,2.00
2023-10-19T11:16:08.647Z,2.60
2023-10-19T11:18:40.684Z,1.60
2023-10-19T11:21:10.918Z,1.63
2023-10-19T11:23:37.924Z,1.77
2023-10-19T11:26:06.327Z,1.85
2023-10-19T11:28:34.590Z,1.75
2023-10-19T11:31:14.953Z,2.65
2023-10-19T11:33:44.474Z,1.85
2023-10-19T11:36:14.768Z,2.05
2023-10-19T11:38:42.726Z,1.80
2023-10-19T11:41:10.009Z,1.98
2023-10-19T11:43:37.499Z,1.90
2023-10-19T11:46:07.632Z,1.67
2023-10-19T11:48:37.916Z,2.13
2023-10-19T11:51:05.260Z,1.77
2023-10-19T11:53:37.587Z,1.58
2023-10-19T11:56:06.860Z,2.08
2023-10-19T11:58:35.946Z,1.83
2023-10-19T12:01:17.892Z,2.45
2023-10-19T12:03:46.906Z,2.25
2023-10-19T12:06:19.976Z,1.70
2023-10-19T12:08:47.792Z,1.98
2023-10-19T12:11:17.788Z,1.80
2023-10-19T12:13:45.078Z,2.00
2023-10-19T12:16:16.800Z,1.80
2023-10-19T12:18:44.789Z,1.83
2023-10-19T12:21:14.766Z,1.88
2023-10-19T12:23:43.121Z,2.28
2023-10-19T12:26:12.924Z,1.83
2023-10-19T12:28:41.884Z,1.70
2023-10-19T12:31:12.089Z,1.92
2023-10-19T12:33:39.731Z,2.25
2023-10-19T12:36:25.776Z,2.40
2023-10-19T12:38:53.310Z,2.25
2023-10-19T12:41:20.814Z,1.92
2023-10-19T12:43:48.065Z,2.10
2023-10-19T12:46:15.370Z,2.10
2023-10-19T12:48:42.140Z,2.00
2023-10-19T12:51:10.003Z,1.60
2023-10-19T12:53:38.164Z,2.22
2023-10-19T12:56:05.121Z,2.80
2023-10-19T12:58:32.991Z,1.95
2023-10-19T13:01:00.018Z,2.60
2023-10-19T13:03:32.841Z,2.40
2023-10-19T13:05:59.639Z,2.20
2023-10-19T13:08:29.270Z,2.25
2023-10-19T13:11:04.890Z,2.00
2023-10-19T13:13:37.318Z,2.83
2023-10-19T13:16:06.835Z,2.10
2023-10-19T13:18:36.637Z,2.78
2023-10-19T13:21:06.180Z,2.50
2023-10-19T13:23:40.267Z,2.70
2023-10-19T13:26:18.242Z,2.50
2023-10-19T13:28:48.565Z,2.22
2023-10-19T13:31:16.010Z,2.20
2023-10-19T13:33:42.952Z,2.67
2023-10-19T13:36:09.896Z,2.42
2023-10-19T13:38:36.607Z,2.30
2023-10-19T13:41:12.645Z,2.70
2023-10-19T13:43:45.613Z,2.20
2023-10-19T13:46:12.475Z,2.30
2023-10-19T13:48:41.023Z,2.30
2023-10-19T13:51:13.868Z,2.22
2023-10-19T13:53:41.450Z,2.63
2023-10-19T13:56:12.189Z,2.78
2023-10-19T13:58:40.042Z,2.22
2023-10-19T14:01:10.914Z,2.47
2023-10-19T14:03:39.141Z,2.53
2023-10-19T14:06:06.751Z,2.50
2023-10-19T14:08:33.776Z,2.10
2023-10-19T14:11:04.746Z,2.25
2023-10-19T14:13:32.894Z,2.40
2023-10-19T14:15:59.720Z,2.67
2023-10-19T14:18:26.362Z,2.10
2023-10-19T14:20:53.002Z,3.30
2023-10-19T14:23:19.746Z,2.40
2023-10-19T14:25:46.518Z,2.40
2023-10-19T14:28:13.333Z,2.17
2023-10-19T14:30:40.170Z,2.47
2023-10-19T14:33:12.110Z,2.90
2023-10-19T14:35:45.683Z,2.35
2023-10-19T14:38:14.639Z,1.95
2023-10-19T14:40:46.556Z,2.33
2023-10-19T14:43:13.640Z,2.75
2023-10-19T14:45:42.178Z,3.58
2023-10-19T14:48:11.444Z,2.47
2023-10-19T14:50:38.478Z,2.28
2023-10-19T14:53:05.187Z,2.35
2023-10-19T14:55:32.840Z,2.22
2023-10-19T14:58:00.554Z,2.00
2023-10-19T15:00:27.676Z,3.17
2023-10-19T15:03:01.801Z,2.42
2023-10-19T15:07:56.813Z,2.15
2023-10-19T15:10:26.249Z,2.40
2023-10-19T15:12:57.189Z,1.92
2023-10-19T15:15:24.231Z,2.20
2023-10-19T15:17:53.671Z,2.47
2023-10-19T15:20:23.444Z,2.50
2023-10-19T15:22:50.232Z,2.13
2023-10-19T15:25:20.871Z,2.05
2023-10-19T15:27:49.410Z,2.42
2023-10-19T15:30:17.992Z,4.72
2023-10-19T15:32:45.532Z,3.58
2023-10-19T15:35:16.460Z,2.67
2023-10-19T15:37:49.108Z,2.63
2023-10-19T15:40:20.588Z,2.22
2023-10-19T15:42:48.035Z,2.40
2023-10-19T15:45:19.479Z,2.38
2023-10-19T15:47:47.483Z,2.50
2023-10-19T15:50:18.349Z,2.78
2023-10-19T15:52:45.839Z,2.78
2023-10-19T15:55:15.210Z,2.50
2023-10-19T15:57:43.571Z,2.78
2023-10-19T16:00:16.093Z,2.25
2023-10-19T16:02:44.000Z,1.95
2023-10-19T16:05:12.524Z,1.90
2023-10-19T16:07:39.818Z,2.30
2023-10-19T16:10:07.396Z,3.03
2023-10-19T16:12:34.051Z,2.58
2023-10-19T16:15:00.758Z,4.20
2023-10-19T16:17:28.071Z,3.33
2023-10-19T16:19:54.866Z,3.10
2023-10-19T16:22:22.342Z,2.17
2023-10-19T16:24:49.576Z,2.70
2023-10-19T16:27:17.546Z,2.45
2023-10-19T16:29:44.867Z,6.80
2023-10-19T16:32:11.773Z,18.02
2023-10-19T16:34:38.599Z,4.35
2023-10-19T16:37:05.273Z,3.80
2023-10-19T16:39:33.050Z,3.05
2023-10-19T16:41:59.722Z,2.45
2023-10-19T16:44:26.494Z,2.22
2023-10-19T16:46:59.082Z,2.22
2023-10-19T16:49:25.750Z,2.72
2023-10-19T16:51:52.492Z,3.17
2023-10-19T16:54:19.201Z,2.50
2023-10-19T16:56:48.801Z,2.45
2023-10-19T16:59:19.333Z,2.67
2023-10-19T17:01:46.425Z,2.08
2023-10-19T17:04:13.117Z,2.50
2023-10-19T17:06:40.628Z,2.97
2023-10-19T17:09:21.221Z,2.80
2023-10-19T17:11:49.675Z,2.78
2023-10-19T17:14:17.308Z,3.10
2023-10-19T17:16:45.570Z,3.20
2023-10-19T17:19:12.912Z,2.83
2023-10-19T17:21:39.940Z,2.95
2023-10-19T17:24:07.973Z,2.70
2023-10-19T17:26:35.098Z,2.92
2023-10-19T17:29:02.305Z,3.10
2023-10-19T17:31:29.117Z,2.50
2023-10-19T17:33:56.911Z,2.35
2023-10-19T17:36:23.765Z,2.85
2023-10-19T17:38:50.563Z,3.10
2023-10-19T17:41:17.422Z,2.72
2023-10-19T17:43:44.326Z,2.70
2023-10-19T17:46:11.707Z,2.72
2023-10-19T17:48:39.264Z,2.80
2023-10-19T17:51:10.595Z,2.97
2023-10-19T17:53:39.342Z,3.15
2023-10-19T17:56:09.352Z,3.45
2023-10-19T17:58:36.528Z,3.50
2023-10-19T18:01:10.709Z,3.00
2023-10-19T18:03:39.613Z,3.03
2023-10-19T18:06:10.636Z,2.83
2023-10-19T18:08:37.497Z,2.97
2023-10-19T18:11:04.645Z,3.10
2023-10-19T18:13:34.647Z,2.95
2023-10-19T18:16:05.826Z,3.22
2023-10-19T18:18:33.031Z,3.15
2023-10-19T18:20:59.805Z,2.58
2023-10-19T18:23:26.522Z,3.15
2023-10-19T18:25:55.998Z,3.45
2023-10-19T18:28:23.016Z,3.85
2023-10-19T18:30:58.586Z,2.67
2023-10-19T18:33:30.340Z,2.63
2023-10-19T18:36:05.801Z,2.58
2023-10-19T18:38:36.062Z,2.80
2023-10-19T18:41:07.248Z,3.35
2023-10-19T18:43:34.288Z,3.38
2023-10-19T18:46:02.023Z,3.40
2023-10-19T18:48:28.882Z,2.92
2023-10-19T18:51:01.641Z,3.13
2023-10-19T18:53:29.115Z,3.10
2023-10-19T18:55:58.486Z,3.20
2023-10-19T18:58:26.706Z,3.30
2023-10-19T19:00:55.410Z,3.65
2023-10-19T19:03:22.989Z,3.42
2023-10-19T19:06:12.116Z,3.70
2023-10-19T19:08:38.879Z,3.60
2023-10-19T19:11:16.065Z,3.47
2023-10-19T19:13:43.288Z,3.90
2023-10-19T19:16:10.797Z,3.70
2023-10-19T19:18:37.675Z,3.92
2023-10-19T19:21:08.909Z,3.83
2023-10-19T19:23:40.370Z,4.03
2023-10-19T19:26:12.530Z,4.10
2023-10-19T19:28:46.405Z,4.22
2023-10-19T19:31:20.942Z,4.55
2023-10-19T19:33:48.069Z,4.60
2023-10-19T19:36:16.596Z,4.40
2023-10-19T19:38:46.039Z,5.45
2023-10-19T19:41:16.667Z,4.72
2023-10-19T19:43:44.642Z,4.28
2023-10-19T19:46:11.477Z,4.40
2023-10-19T19:48:39.596Z,4.55
2023-10-19T19:51:09.353Z,5.38
2023-10-19T19:53:36.071Z,5.40
2023-10-19T19:56:04.477Z,4.82
2023-10-19T19:58:31.229Z,5.07
2023-10-19T20:00:57.885Z,6.40
2023-10-19T20:03:24.638Z,5.35
2023-10-19T20:05:51.319Z,5.20
2023-10-19T20:08:18.234Z,4.68
2023-10-19T20:10:46.166Z,5.00
2023-10-19T20:13:17.041Z,5.10
2023-10-19T20:15:44.885Z,5.72
2023-10-19T20:18:12.273Z,5.70
2023-10-19T20:20:40.095Z,5.72
2023-10-19T20:23:06.840Z,5.28
2023-10-19T20:25:34.319Z,5.40
2023-10-19T20:28:02.937Z,5.63
2023-10-19T20:30:29.694Z,5.45
2023-10-19T20:32:56.842Z,5.15
2023-10-19T20:35:24.042Z,5.53
2023-10-19T20:37:51.781Z,5.38
2023-10-19T20:40:25.952Z,5.13
2023-10-19T20:42:58.295Z,5.80
2023-10-19T20:45:26.999Z,4.85
2023-10-19T20:47:57.082Z,5.03
2023-10-19T20:50:28.913Z,5.15
2023-10-19T20:52:58.864Z,5.70
2023-10-19T20:55:25.576Z,6.00
2023-10-19T20:57:52.215Z,5.63
2023-10-19T21:00:20.679Z,5.97
2023-10-19T21:02:47.674Z,6.15
2023-10-19T21:05:17.011Z,5.65
2023-10-19T21:07:45.022Z,5.90
2023-10-19T21:10:12.954Z,5.65
2023-10-19T21:12:40.553Z,5.82
2023-10-19T21:15:13.962Z,6.60
2023-10-19T21:17:42.640Z,6.30
2023-10-19T21:20:10.359Z,6.53
2023-10-19T21:22:36.988Z,6.43
2023-10-19T21:25:04.676Z,6.05
2023-10-19T21:27:31.342Z,6.65
2023-10-19T21:29:57.964Z,6.68
2023-10-19T21:32:24.693Z,6.35
2023-10-19T21:34:51.423Z,6.40
2023-10-19T21:37:18.111Z,6.68
2023-10-19T21:39:44.796Z,7.07
2023-10-19T21:42:11.481Z,7.30
2023-10-19T21:44:38.993Z,7.10
2023-10-19T21:47:05.860Z,7.63
2023-10-19T21:49:32.476Z,7.47
2023-10-19T21:51:59.170Z,7.90
2023-10-19T21:54:25.987Z,7.97
2023-10-19T21:56:52.628Z,8.10
2023-10-19T21:59:19.546Z,8.85
2023-10-19T22:01:47.019Z,8.38
2023-10-19T22:04:13.836Z,8.57
2023-10-19T22:06:40.637Z,8.65
2023-10-19T22:09:17.384Z,8.82
2023-10-19T22:11:46.690Z,8.60
2023-10-19T22:14:13.656Z,8.73
2023-10-19T22:16:40.363Z,9.15
2023-10-19T22:19:07.036Z,8.77
2023-10-19T22:21:36.718Z,9.15
2023-10-19T22:24:03.804Z,8.73
2023-10-19T22:26:32.371Z,9.25
2023-10-19T22:28:59.722Z,9.35
2023-10-19T22:31:26.496Z,9.40
2023-10-19T22:33:53.193Z,8.20
2023-10-19T22:36:19.944Z,9.25
2023-10-19T22:38:46.704Z,9.50
2023-10-19T22:41:13.515Z,9.27
2023-10-19T22:43:40.217Z,9.80
2023-10-19T22:46:06.982Z,9.13
2023-10-19T22:48:34.351Z,9.23
2023-10-19T22:51:01.214Z,9.43
2023-10-19T22:53:28.565Z,9.45
2023-10-19T22:55:55.408Z,9.50
2023-10-19T22:58:22.178Z,9.55
2023-10-19T23:00:48.856Z,9.82
2023-10-19T23:03:15.577Z,8.85
2023-10-19T23:05:42.296Z,8.65
2023-10-19T23:08:08.887Z,9.15
2023-10-19T23:10:36.119Z,9.35
2023-10-19T23:13:02.743Z,9.75
2023-10-19T23:15:38.446Z,9.52
2023-10-19T23:18:07.944Z,10.20
2023-10-19T23:20:35.745Z,8.60
2023-10-19T23:23:05.810Z,9.57
2023-10-19T23:25:33.755Z,9.52
2023-10-19T23:28:06.052Z,10.48
2023-10-19T23:30:36.230Z,9.40
2023-10-19T23:33:05.152Z,10.02
2023-10-19T23:35:31.880Z,9.77
2023-10-19T23:37:58.630Z,9.57
2023-10-19T23:40:25.412Z,9.88
2023-10-19T23:42:52.037Z,9.93
2023-10-19T23:45:19.885Z,9.48
2023-10-19T23:47:46.604Z,9.43
2023-10-19T23:50:14.884Z,9.07
2023-10-19T23:52:41.596Z,9.52
2023-10-19T23:55:10.756Z,10.38
2023-10-19T23:57:42.359Z,8.45
